Time;durP1;ratioP1;P1;durP2;ratioP2;P2;SDS_P1;SDS_P2;PMS_P1;PMS_P2;Temp;Humidity;BMP_temperature;BMP_pressure;BME280_temperature;BME280_humidity;BME280_pressure;Samples;Min_cycle;Max_cycle;Signal;HPM_P1;HPM_P2
2023/03/07 00:00:49;;;;;;;;;;;;;;;9.64;63.28;101923.81;4788772;29;19924;-48
2023/03/07 00:03:16;;;;;;;;;;;;;;;9.65;64.25;101928.13;4788498;29;19918;-48
2023/03/07 00:05:42;;;;;;;;;;;;;;;9.60;66.12;101918.97;4788301;30;19917;-46
2023/03/07 00:08:08;;;;;;;;;;;;;;;9.64;65.41;101921.13;4788781;30;19914;-45
2023/03/07 00:10:34;;;;;;;;;;;;;;;9.69;67.10;101913.41;4788666;30;19925;-45
2023/03/07 00:13:00;;;;;;;;;;;;;;;9.55;68.00;101913.31;4787975;30;19928;-47
2023/03/07 00:15:26;;;;;;;;;;;;;;;9.49;69.63;101926.38;4788126;30;19925;-45
2023/03/07 00:17:52;;;;;;;;;;;;;;;9.18;71.43;101917.44;4788583;30;19928;-47
2023/03/07 00:20:17;;;;;;;;;;;;;;;9.16;71.25;101917.63;4788680;30;20004;-45
2023/03/07 00:22:45;;;;;;;;;;;;;;;9.07;71.80;101918.63;4788077;30;19925;-45
2023/03/07 00:25:11;;;;;;;;;;;;;;;8.89;74.33;101912.66;4788435;30;19963;-47
2023/03/07 00:27:37;;;;;;;;;;;;;;;8.89;73.89;101920.66;4788375;30;20014;-45
2023/03/07 00:30:03;;;;;;;;;;;;;;;9.10;73.66;101922.78;4779541;30;19921;-45
2023/03/07 00:32:29;;;;;;;;;;;;;;;9.10;73.89;101917.44;4770807;30;19917;-45
2023/03/07 00:34:57;;;;;;;;;;;;;;;9.41;71.46;101914.88;4787930;30;19944;-49
2023/03/07 00:37:22;;;;;;;;;;;;;;;9.41;70.39;101920.22;4787988;30;20377;-45
2023/03/07 00:39:48;;;;;;;;;;;;;;;9.41;71.04;101926.38;4788165;30;19923;-45
2023/03/07 00:42:14;;;;;;;;;;;;;;;9.55;71.51;101932.88;4788164;30;19921;-49
2023/03/07 00:44:40;;;;;;;;;;;;;;;9.60;73.18;101927.00;4787262;29;19921;-45
2023/03/07 00:47:06;;;;;;;;;;;;;;;9.85;71.73;101919.72;4787897;30;19926;-45
2023/03/07 00:49:32;;;;;;;;;;;;;;;9.96;70.14;101922.00;4788306;30;19918;-45
2023/03/07 00:51:58;;;;;;;;;;;;;;;9.95;67.41;101909.63;4787889;30;19980;-45
2023/03/07 00:54:24;;;;;;;;;;;;;;;9.80;68.60;101914.88;4787607;30;19960;-46
2023/03/07 00:56:49;;;;;;;;;;;;;;;9.69;67.21;101907.25;4787689;30;19929;-46
2023/03/07 00:59:15;;;;;;;;;;;;;;;9.73;67.92;101908.56;4787990;29;20430;-46
2023/03/07 01:01:41;;;;;;;;;;;;;;;10.14;65.21;101917.19;4787727;30;19945;-46
2023/03/07 01:04:07;;;;;;;;;;;;;;;10.17;66.68;101916.84;4787828;30;19921;-45
2023/03/07 01:06:33;;;;;;;;;;;;;;;10.11;67.14;101922.09;4787519;30;20412;-45
2023/03/07 01:09:01;;;;;;;;;;;;;;;10.29;66.85;101926.16;4788119;30;19953;-46
2023/03/07 01:11:28;;;;;;;;;;;;;;;10.43;67.08;101929.06;4780727;30;19966;-46
2023/03/07 01:13:54;;;;;;;;;;;;;;;10.48;67.39;101932.06;4784107;29;20026;-45
2023/03/07 01:16:21;;;;;;;;;;;;;;;10.54;65.35;101929.47;4784412;30;19951;-46
2023/03/07 01:18:49;;;;;;;;;;;;;;;10.50;66.46;101936.22;4787524;30;19922;-46
2023/03/07 01:21:19;;;;;;;;;;;;;;;10.42;67.08;101930.91;4787306;30;19967;-45
2023/03/07 01:23:45;;;;;;;;;;;;;;;10.41;67.69;101923.91;4769800;30;19943;-45
2023/03/07 01:26:16;;;;;;;;;;;;;;;10.38;67.97;101918.91;4782779;30;19921;-45
2023/03/07 01:28:42;;;;;;;;;;;;;;;10.21;69.83;101926.16;4780024;30;19981;-46
2023/03/07 01:31:08;;;;;;;;;;;;;;;9.93;69.38;101927.69;4771103;29;19928;-45
2023/03/07 01:33:34;;;;;;;;;;;;;;;9.68;63.44;101925.13;4788754;29;19921;-45
2023/03/07 01:36:00;;;;;;;;;;;;;;;9.04;64.17;101923.47;4781423;30;20289;-45
2023/03/07 01:38:27;;;;;;;;;;;;;;;8.70;65.25;101927.16;4786833;30;20362;-47
2023/03/07 01:40:53;;;;;;;;;;;;;;;9.09;66.01;101926.47;4773276;30;19925;-47
2023/03/07 01:43:29;;;;;;;;;;;;;;;9.17;66.80;101923.78;4768933;30;19929;-47
2023/03/07 01:46:20;;;;;;;;;;;;;;;9.03;67.67;101927.16;4774063;30;19925;-45
2023/03/07 01:48:59;;;;;;;;;;;;;;;8.91;67.27;101927.50;4742119;30;19926;-47
2023/03/07 01:51:26;;;;;;;;;;;;;;;8.87;68.01;101928.00;4758994;30;20017;-46
2023/03/07 01:53:52;;;;;;;;;;;;;;;8.95;67.68;101925.31;4764126;30;19979;-46
2023/03/07 01:56:19;;;;;;;;;;;;;;;8.89;70.37;101926.84;4751250;30;19929;-46
2023/03/07 01:58:45;;;;;;;;;;;;;;;9.16;70.96;101939.00;4758884;30;20492;-45
2023/03/07 02:01:12;;;;;;;;;;;;;;;8.81;71.59;101924.16;4769371;30;20040;-46
2023/03/07 02:03:38;;;;;;;;;;;;;;;8.97;70.70;101923.31;4768884;30;20010;-46
2023/03/07 02:06:08;;;;;;;;;;;;;;;9.08;71.06;101919.47;4768695;30;19925;-46
2023/03/07 02:08:35;;;;;;;;;;;;;;;8.89;73.69;101923.34;4758024;30;20465;-46
2023/03/07 02:11:01;;;;;;;;;;;;;;;8.96;72.88;101917.13;4764931;30;20298;-46
2023/03/07 02:13:27;;;;;;;;;;;;;;;9.12;73.24;101912.78;4765778;30;19922;-46
2023/03/07 02:15:53;;;;;;;;;;;;;;;9.33;72.19;101922.91;4759548;30;19921;-46
2023/03/07 02:18:24;;;;;;;;;;;;;;;9.41;71.61;101921.03;4768872;30;19937;-48
2023/03/07 02:20:56;;;;;;;;;;;;;;;9.41;71.49;101920.22;4768875;30;20381;-49
2023/03/07 02:23:40;;;;;;;;;;;;;;;9.29;72.28;101917.09;4768841;30;19925;-46
2023/03/07 02:26:09;;;;;;;;;;;;;;;9.27;73.60;101919.06;4765373;30;19929;-46
2023/03/07 02:28:36;;;;;;;;;;;;;;;9.15;73.28;101917.78;4768462;30;20111;-45
2023/03/07 02:31:03;;;;;;;;;;;;;;;9.43;71.74;101924.38;4768692;30;20382;-44
2023/03/07 02:33:29;;;;;;;;;;;;;;;9.31;69.50;101914.22;4767507;30;20267;-45
2023/03/07 02:35:57;;;;;;;;;;;;;;;9.31;69.51;101916.91;4768815;30;19970;-45
2023/03/07 02:38:23;;;;;;;;;;;;;;;9.17;70.73;101910.44;4768621;30;19925;-46
2023/03/07 02:40:50;;;;;;;;;;;;;;;9.11;70.76;101917.28;4768851;30;19917;-46
2023/03/07 02:43:15;;;;;;;;;;;;;;;9.24;70.49;101914.91;4768639;30;19956;-46
2023/03/07 02:45:41;;;;;;;;;;;;;;;9.28;70.97;101907.41;4768534;30;19965;-46
2023/03/07 02:48:07;;;;;;;;;;;;;;;9.32;71.51;101914.06;4781693;30;19925;-46
2023/03/07 02:50:34;;;;;;;;;;;;;;;9.33;71.71;101910.41;4786534;30;19983;-49
2023/03/07 02:53:00;;;;;;;;;;;;;;;9.39;71.53;101914.22;4786248;30;19917;-49
2023/03/07 02:55:25;;;;;;;;;;;;;;;9.30;71.49;101904.56;4786017;30;20384;-48
2023/03/07 02:57:52;;;;;;;;;;;;;;;9.59;70.71;101907.44;4786488;30;19917;-48
2023/03/07 03:00:18;;;;;;;;;;;;;;;9.24;72.21;101906.91;4786474;30;20004;-49
2023/03/07 03:02:44;;;;;;;;;;;;;;;9.70;71.60;101912.41;4778080;30;19929;-48
2023/03/07 03:05:10;;;;;;;;;;;;;;;9.68;72.07;101908.25;4768146;30;19922;-48
2023/03/07 03:07:36;;;;;;;;;;;;;;;9.56;70.81;101907.81;4768747;30;20033;-47
2023/03/07 03:10:03;;;;;;;;;;;;;;;9.44;71.47;101914.53;4768430;30;19917;-46
2023/03/07 03:12:29;;;;;;;;;;;;;;;9.18;72.70;101942.31;4786121;30;19956;-45
2023/03/07 03:14:54;;;;;;;;;;;;;;;9.00;72.17;101949.69;4786140;30;19975;-45
2023/03/07 03:17:20;;;;;;;;;;;;;;;8.95;73.47;101941.34;4786528;30;19917;-45
2023/03/07 03:19:46;;;;;;;;;;;;;;;8.84;71.87;101950.53;4786296;30;20016;-44
2023/03/07 03:22:12;;;;;;;;;;;;;;;8.88;72.00;101951.88;4786340;30;19959;-44
2023/03/07 03:24:39;;;;;;;;;;;;;;;8.82;71.83;101949.00;4788855;29;19924;-45
2023/03/07 03:27:05;;;;;;;;;;;;;;;8.71;71.55;101944.84;4789338;30;19921;-45
2023/03/07 03:29:31;;;;;;;;;;;;;;;8.71;71.90;101944.84;4788974;30;20373;-46
2023/03/07 03:31:57;;;;;;;;;;;;;;;8.65;72.50;101948.19;4789373;30;19922;-45
2023/03/07 03:34:23;;;;;;;;;;;;;;;8.72;72.45;101950.03;4788517;30;19921;-45
2023/03/07 03:36:49;;;;;;;;;;;;;;;8.75;72.21;101943.50;4789149;30;19917;-47
2023/03/07 03:39:15;;;;;;;;;;;;;;;8.79;72.24;101944.03;4788083;30;20408;-45
2023/03/07 03:41:41;;;;;;;;;;;;;;;8.90;72.06;101946.34;4789084;29;19921;-48
2023/03/07 03:44:07;;;;;;;;;;;;;;;8.88;72.32;101943.00;4789031;30;20004;-46
2023/03/07 03:46:33;;;;;;;;;;;;;;;8.89;73.01;101932.19;4788866;29;19913;-45
2023/03/07 03:48:59;;;;;;;;;;;;;;;8.86;72.91;101942.34;4788272;29;19921;-47
2023/03/07 03:51:25;;;;;;;;;;;;;;;8.91;73.07;101948.03;4786656;29;19932;-47
2023/03/07 03:53:51;;;;;;;;;;;;;;;9.06;72.90;101935.66;4787183;29;19925;-46
2023/03/07 03:56:18;;;;;;;;;;;;;;;8.88;73.78;101943.00;4788791;30;20281;-46
2023/03/07 03:58:46;;;;;;;;;;;;;;;8.63;75.82;101943.00;4788866;30;20367;-46
2023/03/07 04:01:12;;;;;;;;;;;;;;;8.67;75.71;101947.03;4788210;30;20486;-46
2023/03/07 04:03:42;;;;;;;;;;;;;;;8.73;76.06;101937.53;4789056;30;19964;-48
2023/03/07 04:06:10;;;;;;;;;;;;;;;8.62;76.78;101943.19;4788672;30;19964;-49
2023/03/07 04:08:36;;;;;;;;;;;;;;;8.40;77.48;101942.00;4788741;30;19933;-48
2023/03/07 04:11:03;;;;;;;;;;;;;;;8.50;76.73;101944.53;4788496;30;19990;-49
2023/03/07 04:13:29;;;;;;;;;;;;;;;7.99;79.05;101938.34;4788633;30;19961;-48
2023/03/07 04:15:55;;;;;;;;;;;;;;;8.25;78.56;101939.09;4788554;30;19922;-49
2023/03/07 04:18:21;;;;;;;;;;;;;;;8.31;77.49;101938.44;4788522;30;19921;-46
2023/03/07 04:20:48;;;;;;;;;;;;;;;8.41;77.40;101943.66;4788521;30;19917;-45
2023/03/07 04:23:15;;;;;;;;;;;;;;;8.09;78.56;101950.56;4788332;30;19982;-46
2023/03/07 04:25:46;;;;;;;;;;;;;;;7.95;78.77;101945.88;4788432;30;19940;-49
2023/03/07 04:28:12;;;;;;;;;;;;;;;7.73;79.88;101943.78;4788159;30;19982;-48
2023/03/07 04:30:37;;;;;;;;;;;;;;;7.48;80.69;101940.16;4788319;30;20335;-46
2023/03/07 04:33:03;;;;;;;;;;;;;;;7.75;80.02;101944.44;4788387;30;19918;-48
2023/03/07 04:35:29;;;;;;;;;;;;;;;7.87;79.12;101948.50;4787166;29;20411;-48
2023/03/07 04:37:55;;;;;;;;;;;;;;;8.05;78.05;101943.91;4788401;30;19941;-45
2023/03/07 04:40:21;;;;;;;;;;;;;;;7.85;79.39;101940.66;4796725;29;20101;-46
2023/03/07 04:42:46;;;;;;;;;;;;;;;7.67;81.38;101947.94;4806300;29;20003;-45
2023/03/07 04:45:12;;;;;;;;;;;;;;;7.80;81.09;101950.97;4791100;29;20012;-48
2023/03/07 04:47:38;;;;;;;;;;;;;;;7.96;79.90;101950.19;4787962;30;19921;-47
2023/03/07 04:50:04;;;;;;;;;;;;;;;8.08;79.54;101948.06;4771094;30;19929;-46
2023/03/07 04:52:30;;;;;;;;;;;;;;;8.24;78.69;101949.94;4773446;30;20396;-48
2023/03/07 04:54:56;;;;;;;;;;;;;;;8.08;79.22;101959.56;4787584;30;19918;-44
2023/03/07 04:57:22;;;;;;;;;;;;;;;8.13;79.30;101954.56;4787849;30;20020;-47
2023/03/07 04:59:48;;;;;;;;;;;;;;;8.18;79.06;101959.44;4787761;30;19917;-45
2023/03/07 05:02:14;;;;;;;;;;;;;;;8.22;78.71;101960.78;4787313;29;19924;-48
2023/03/07 05:04:39;;;;;;;;;;;;;;;8.33;78.20;101946.28;4787591;30;19923;-46
2023/03/07 05:07:05;;;;;;;;;;;;;;;7.60;82.56;101939.72;4787578;30;19928;-47
2023/03/07 05:09:31;;;;;;;;;;;;;;;7.40;84.16;101936.47;4787596;30;20286;-45
2023/03/07 05:11:57;;;;;;;;;;;;;;;7.26;82.58;101941.53;4787580;30;20237;-45
2023/03/07 05:14:23;;;;;;;;;;;;;;;7.68;81.72;101944.25;4787282;30;19933;-46
2023/03/07 05:16:49;;;;;;;;;;;;;;;7.95;81.23;101953.88;4787546;30;20003;-48
2023/03/07 05:19:14;;;;;;;;;;;;;;;7.91;81.12;101955.19;4787354;30;19917;-45
2023/03/07 05:21:42;;;;;;;;;;;;;;;8.07;80.85;101960.56;4787416;30;19921;-45
2023/03/07 05:24:09;;;;;;;;;;;;;;;8.31;79.81;101970.44;4787319;30;20439;-48
2023/03/07 05:26:35;;;;;;;;;;;;;;;8.45;79.63;101966.34;4787133;30;20373;-45
2023/03/07 05:29:01;;;;;;;;;;;;;;;8.56;79.44;101970.53;4787434;30;19933;-48
2023/03/07 05:31:27;;;;;;;;;;;;;;;8.54;79.15;101968.03;4787547;30;19922;-48
2023/03/07 05:33:53;;;;;;;;;;;;;;;8.52;79.23;101970.03;4787401;30;20305;-49
2023/03/07 05:36:19;;;;;;;;;;;;;;;8.64;78.87;101967.88;4787004;30;19960;-45
2023/03/07 05:38:45;;;;;;;;;;;;;;;8.50;79.69;101960.53;4787389;30;20379;-50
2023/03/07 05:41:11;;;;;;;;;;;;;;;8.72;79.08;101962.56;4787059;29;19917;-49
2023/03/07 05:43:37;;;;;;;;;;;;;;;8.68;79.44;101962.03;4787062;30;19917;-48
2023/03/07 05:46:03;;;;;;;;;;;;;;;8.91;78.64;101961.38;4786673;30;19934;-49
2023/03/07 05:48:29;;;;;;;;;;;;;;;8.81;78.86;101966.03;4791756;29;19921;-48
2023/03/07 05:50:57;;;;;;;;;;;;;;;8.94;78.63;101982.41;4805011;29;19944;-46
2023/03/07 05:53:23;;;;;;;;;;;;;;;8.99;78.08;101986.25;4779495;29;19947;-45
2023/03/07 05:55:49;;;;;;;;;;;;;;;8.90;76.55;102002.44;4769257;30;19925;-49
2023/03/07 05:58:15;;;;;;;;;;;;;;;8.81;77.39;102011.44;4769382;30;20143;-48
2023/03/07 06:00:41;;;;;;;;;;;;;;;8.87;77.22;102013.44;4773630;30;19963;-46
2023/03/07 06:03:07;;;;;;;;;;;;;;;8.58;78.99;102021.91;4783357;29;19921;-47
2023/03/07 06:05:32;;;;;;;;;;;;;;;8.74;78.67;102021.94;4769712;29;20380;-45
2023/03/07 06:07:58;;;;;;;;;;;;;;;8.56;77.75;102015.91;4786312;29;19927;-48
2023/03/07 06:10:24;;;;;;;;;;;;;;;8.46;77.41;102016.88;4786206;29;19917;-48
2023/03/07 06:12:53;;;;;;;;;;;;;;;8.41;77.47;102018.38;4786016;29;20390;-47
2023/03/07 06:15:19;;;;;;;;;;;;;;;8.55;77.00;102025.75;4784415;29;20041;-48
2023/03/07 06:17:45;;;;;;;;;;;;;;;8.51;77.40;102023.56;4784423;29;20385;-46
2023/03/07 06:20:11;;;;;;;;;;;;;;;8.38;76.97;102029.34;4786011;29;19937;-45
2023/03/07 06:22:37;;;;;;;;;;;;;;;8.41;76.83;102029.03;4785841;30;20395;-45
2023/03/07 06:25:07;;;;;;;;;;;;;;;8.26;76.89;102014.63;4786612;30;19918;-48
2023/03/07 06:27:34;;;;;;;;;;;;;;;7.97;78.90;102007.00;4786791;30;19918;-46
2023/03/07 06:30:00;;;;;;;;;;;;;;;7.95;79.75;102009.84;4786896;30;19970;-47
2023/03/07 06:32:26;;;;;;;;;;;;;;;7.65;80.90;102000.53;4770686;30;19921;-46
2023/03/07 06:34:52;;;;;;;;;;;;;;;7.31;81.99;102003.97;4786265;30;19928;-49
2023/03/07 06:37:18;;;;;;;;;;;;;;;7.44;81.98;101997.41;4786525;30;19922;-47
2023/03/07 06:39:44;;;;;;;;;;;;;;;7.68;81.04;102000.22;4786655;30;19918;-47
2023/03/07 06:42:10;;;;;;;;;;;;;;;7.51;81.95;102001.13;4786637;30;19925;-46
2023/03/07 06:44:35;;;;;;;;;;;;;;;7.57;81.72;101998.66;4787026;30;20351;-46
2023/03/07 06:47:01;;;;;;;;;;;;;;;7.67;81.83;102004.72;4786286;30;20317;-47
2023/03/07 06:49:27;;;;;;;;;;;;;;;7.59;82.21;102011.81;4786617;30;20365;-46
2023/03/07 06:51:53;;;;;;;;;;;;;;;7.53;82.47;102007.13;4786419;30;19914;-46
2023/03/07 06:54:19;;;;;;;;;;;;;;;7.55;82.49;102013.97;4769594;30;19918;-45
2023/03/07 06:56:45;;;;;;;;;;;;;;;7.71;81.48;102007.06;4768577;30;19929;-47
2023/03/07 06:59:10;;;;;;;;;;;;;;;7.74;80.96;102012.06;4771008;30;20259;-49
2023/03/07 07:01:36;;;;;;;;;;;;;;;7.75;80.84;102005.75;4789143;30;20029;-50
2023/03/07 07:04:03;;;;;;;;;;;;;;;7.65;80.68;102001.34;4789643;30;20274;-50
2023/03/07 07:06:28;;;;;;;;;;;;;;;7.63;80.83;102006.03;4789857;30;19948;-47
2023/03/07 07:08:55;;;;;;;;;;;;;;;7.66;80.25;102005.72;4789740;30;19949;-49
2023/03/07 07:11:21;;;;;;;;;;;;;;;7.57;80.99;102016.47;4789711;30;19917;-47
2023/03/07 07:13:47;;;;;;;;;;;;;;;7.64;80.26;102010.34;4789586;30;19913;-47
2023/03/07 07:16:13;;;;;;;;;;;;;;;7.40;81.38;102015.53;4789400;30;19921;-45
2023/03/07 07:18:38;;;;;;;;;;;;;;;7.48;80.79;102015.59;4789380;30;20369;-47
2023/03/07 07:21:04;;;;;;;;;;;;;;;7.58;80.36;102015.47;4789554;30;20274;-49
2023/03/07 07:23:30;;;;;;;;;;;;;;;7.44;80.60;102008.91;4789533;30;19918;-49
2023/03/07 07:25:56;;;;;;;;;;;;;;;7.41;80.21;102004.72;4789090;30;19917;-47
2023/03/07 07:28:22;;;;;;;;;;;;;;;7.52;79.53;102003.63;4789285;30;19967;-46
2023/03/07 07:30:48;;;;;;;;;;;;;;;7.55;79.06;102005.13;4788231;30;19925;-47
2023/03/07 07:33:14;;;;;;;;;;;;;;;7.42;79.53;102010.88;4788001;29;20325;-47
2023/03/07 07:35:44;;;;;;;;;;;;;;;7.40;79.27;102016.38;4788668;30;19917;-49
2023/03/07 07:38:10;;;;;;;;;;;;;;;7.31;79.36;102011.13;4788087;29;20016;-46
2023/03/07 07:40:35;;;;;;;;;;;;;;;7.40;78.96;102011.03;4787955;29;19930;-48
2023/03/07 07:43:01;;;;;;;;;;;;;;;7.40;79.03;102012.88;4788833;30;19917;-50
2023/03/07 07:45:27;;;;;;;;;;;;;;;7.42;78.99;102018.88;4789074;30;19917;-46
2023/03/07 07:47:53;;;;;;;;;;;;;;;7.65;78.38;102021.84;4787780;29;19941;-46
2023/03/07 07:50:20;;;;;;;;;;;;;;;7.54;79.05;102027.44;4787435;29;20008;-48
2023/03/07 07:52:46;;;;;;;;;;;;;;;7.59;79.18;102030.47;4786962;29;19921;-47
2023/03/07 07:55:15;;;;;;;;;;;;;;;7.37;80.80;102019.34;4788411;30;19928;-46
2023/03/07 07:57:41;;;;;;;;;;;;;;;7.60;79.93;102021.47;4786571;29;20393;-49
2023/03/07 08:00:08;;;;;;;;;;;;;;;7.40;81.30;102018.22;4787620;30;19921;-49
2023/03/07 08:02:34;;;;;;;;;;;;;;;7.39;81.23;102021.88;4786970;29;19921;-49
2023/03/07 08:05:00;;;;;;;;;;;;;;;7.57;80.58;102014.66;4787233;29;19925;-48
2023/03/07 08:07:26;;;;;;;;;;;;;;;7.70;80.18;102013.38;4787091;29;19918;-47
2023/03/07 08:09:52;;;;;;;;;;;;;;;7.65;79.99;102011.19;4787673;29;19921;-46
2023/03/07 08:12:17;;;;;;;;;;;;;;;7.60;80.15;102011.66;4786265;30;19922;-47
2023/03/07 08:14:43;;;;;;;;;;;;;;;7.50;80.25;102016.28;4786939;29;19964;-50
2023/03/07 08:17:09;;;;;;;;;;;;;;;7.57;79.65;102008.50;4786413;30;19953;-46
2023/03/07 08:19:35;;;;;;;;;;;;;;;7.66;79.09;102011.03;4786668;30;19925;-46
2023/03/07 08:22:01;;;;;;;;;;;;;;;7.68;78.46;102017.03;4787680;30;19925;-50
2023/03/07 08:24:27;;;;;;;;;;;;;;;7.58;78.94;102018.97;4786328;29;19921;-47
2023/03/07 08:26:53;;;;;;;;;;;;;;;7.52;79.02;102016.94;4786068;29;20346;-47
2023/03/07 08:29:19;;;;;;;;;;;;;;;7.44;79.03;102014.25;4786877;29;19932;-48
2023/03/07 08:31:45;;;;;;;;;;;;;;;7.47;78.78;102016.56;4787575;29;19921;-47
2023/03/07 08:34:13;;;;;;;;;;;;;;;7.17;80.18;102019.72;4785558;29;19978;-50
2023/03/07 08:36:39;;;;;;;;;;;;;;;7.32;80.18;102018.97;4786526;29;20446;-47
2023/03/07 08:39:06;;;;;;;;;;;;;;;7.28;79.74;102016.78;4787183;30;20020;-50
2023/03/07 08:41:32;;;;;;;;;;;;;;;7.54;78.66;102014.94;4786011;29;19925;-46
2023/03/07 08:43:58;;;;;;;;;;;;;;;7.37;79.21;102014.00;4787244;29;19942;-47
2023/03/07 08:46:24;;;;;;;;;;;;;;;7.40;79.25;102012.88;4787294;30;19918;-48
2023/03/07 08:48:49;;;;;;;;;;;;;;;7.40;78.47;102018.22;4786896;30;20012;-49
2023/03/07 08:51:16;;;;;;;;;;;;;;;7.11;79.26;102014.00;4787598;30;20022;-49
2023/03/07 08:53:43;;;;;;;;;;;;;;;7.14;79.21;102015.50;4787608;30;20031;-46
2023/03/07 08:56:10;;;;;;;;;;;;;;;6.95;80.71;102018.38;4787856;30;19928;-49
2023/03/07 08:58:36;;;;;;;;;;;;;;;7.10;79.97;102019.47;4787838;30;19925;-46
2023/03/07 09:01:03;;;;;;;;;;;;;;;6.88;79.63;102024.31;4787929;30;19913;-48
2023/03/07 09:03:28;;;;;;;;;;;;;;;6.99;79.86;102025.88;4788077;30;19921;-47
2023/03/07 09:05:54;;;;;;;;;;;;;;;6.89;79.54;102017.16;4787487;30;20364;-48
2023/03/07 09:08:20;;;;;;;;;;;;;;;6.96;79.13;102025.34;4787676;30;19913;-49
2023/03/07 09:10:46;;;;;;;;;;;;;;;6.93;78.93;102021.16;4787820;30;20365;-49
2023/03/07 09:13:12;;;;;;;;;;;;;;;7.02;78.74;102022.06;4787681;30;19918;-49
2023/03/07 09:15:39;;;;;;;;;;;;;;;7.14;78.00;102019.00;4770979;30;20296;-47
2023/03/07 09:18:06;;;;;;;;;;;;;;;7.00;78.41;102024.91;4787373;30;19990;-47
2023/03/07 09:20:31;;;;;;;;;;;;;;;6.94;78.47;102030.84;4787486;29;19918;-47
2023/03/07 09:22:57;;;;;;;;;;;;;;;6.75;78.55;102023.81;4787201;30;20296;-47
2023/03/07 09:25:23;;;;;;;;;;;;;;;6.76;78.71;102028.16;4784979;30;20381;-46
2023/03/07 09:27:51;;;;;;;;;;;;;;;6.78;78.46;102028.88;4787510;30;20370;-46
2023/03/07 09:30:17;;;;;;;;;;;;;;;6.79;78.74;102027.88;4787380;30;19917;-47
2023/03/07 09:32:43;;;;;;;;;;;;;;;6.91;79.06;102024.97;4787054;30;19922;-46
2023/03/07 09:35:09;;;;;;;;;;;;;;;6.81;79.02;102028.53;4786990;30;20027;-46
2023/03/07 09:37:35;;;;;;;;;;;;;;;6.93;79.10;102036.28;4787614;30;20440;-49
2023/03/07 09:40:04;;;;;;;;;;;;;;;6.79;79.51;102035.03;4787275;29;20015;-46
2023/03/07 09:42:30;;;;;;;;;;;;;;;6.83;79.54;102036.41;4780823;30;19966;-47
2023/03/07 09:45:14;;;;;;;;;;;;;;;6.72;79.84;102031.25;4769060;30;19921;-50
2023/03/07 09:47:56;;;;;;;;;;;;;;;6.89;79.26;102041.09;4772102;30;19921;-46
2023/03/07 09:50:34;;;;;;;;;;;;;;;6.70;80.15;102038.56;4786279;30;20015;-49
2023/03/07 09:53:02;;;;;;;;;;;;;;;6.61;80.45;102038.50;4785950;30;20004;-46
2023/03/07 09:55:29;;;;;;;;;;;;;;;6.78;79.96;102030.69;4785460;30;19921;-47
2023/03/07 09:57:57;;;;;;;;;;;;;;;6.76;79.72;102029.97;4784777;29;19928;-46
2023/03/07 10:00:26;;;;;;;;;;;;;;;6.55;80.39;102030.25;4785633;30;20469;-46
2023/03/07 10:03:02;;;;;;;;;;;;;;;6.43;81.13;102029.66;4786954;30;20013;-46
2023/03/07 10:05:28;;;;;;;;;;;;;;;6.37;81.30;102022.28;4786875;30;20362;-45
2023/03/07 10:07:54;;;;;;;;;;;;;;;6.38;81.35;102017.78;4786481;30;19942;-47
2023/03/07 10:10:20;;;;;;;;;;;;;;;6.30;81.18;102018.53;4786540;30;20012;-47
2023/03/07 10:12:55;;;;;;;;;;;;;;;6.41;80.81;102020.16;4787054;30;20013;-46
2023/03/07 10:15:41;;;;;;;;;;;;;;;6.39;80.75;102025.63;4786394;30;19922;-46
2023/03/07 10:20:43;;;;;;;;;;;;;;;6.45;81.37;102016.22;5697775;24;19984;-45
2023/03/07 10:23:20;;;;;;;;;;;;;;;6.54;80.56;102023.28;4773590;30;19983;-44
2023/03/07 10:25:52;;;;;;;;;;;;;;;6.45;80.68;102026.88;4781608;30;20380;-43
2023/03/07 10:28:30;;;;;;;;;;;;;;;6.45;80.60;102021.53;4772378;30;20273;-43
2023/03/07 10:31:16;;;;;;;;;;;;;;;6.40;80.59;102034.44;4786168;30;20027;-44
2023/03/07 10:33:44;;;;;;;;;;;;;;;6.32;80.74;102032.50;4785992;29;19929;-44
2023/03/07 10:36:32;;;;;;;;;;;;;;;6.38;81.23;102029.25;4772347;30;20021;-44
2023/03/07 10:39:36;;;;;;;;;;;;;;;6.34;80.98;102031.41;4772652;30;20444;-45
2023/03/07 10:42:02;;;;;;;;;;;;;;;6.32;80.93;102028.03;4722586;30;20374;-46
2023/03/07 10:44:31;;;;;;;;;;;;;;;6.33;81.02;102021.75;4718142;30;19933;-43
2023/03/07 10:46:58;;;;;;;;;;;;;;;6.32;81.03;102021.88;4743492;30;19922;-43
2023/03/07 10:49:44;;;;;;;;;;;;;;;6.28;81.20;102017.88;4774721;30;20459;-46
2023/03/07 10:52:31;;;;;;;;;;;;;;;6.33;81.10;102018.25;4790193;30;19941;-45
2023/03/07 10:55:15;;;;;;;;;;;;;;;6.31;80.70;102015.72;4790422;30;19917;-44
2023/03/07 10:57:41;;;;;;;;;;;;;;;6.31;80.94;102015.72;4789786;30;19929;-45
2023/03/07 11:00:15;;;;;;;;;;;;;;;6.28;80.92;102007.22;4789645;30;19918;-44
2023/03/07 11:02:44;;;;;;;;;;;;;;;6.33;80.91;102023.56;4788847;29;19951;-43
2023/03/07 11:05:39;;;;;;;;;;;;;;;6.33;80.80;102018.25;4789849;30;20273;-44
2023/03/07 11:08:23;;;;;;;;;;;;;;;6.34;80.55;102017.28;4774713;30;19922;-44
2023/03/07 11:10:49;;;;;;;;;;;;;;;6.50;80.80;102022.75;4788711;30;19956;-46
2023/03/07 11:13:16;;;;;;;;;;;;;;;6.39;81.39;102016.81;4789757;30;20421;-47
2023/03/07 11:15:44;;;;;;;;;;;;;;;6.37;81.28;102018.78;4786936;30;20396;-44
2023/03/07 11:18:24;;;;;;;;;;;;;;;6.32;81.95;102020.06;4789819;30;20333;-46
2023/03/07 11:20:50;;;;;;;;;;;;;;;6.39;81.55;102022.97;4778158;30;20020;-47
2023/03/07 11:23:24;;;;;;;;;;;;;;;6.29;81.95;102019.53;4771814;30;20361;-46
2023/03/07 11:25:51;;;;;;;;;;;;;;;6.20;82.23;102023.06;4771810;30;19918;-45
2023/03/07 11:28:26;;;;;;;;;;;;;;;6.25;82.05;102020.81;4771453;30;19921;-45
2023/03/07 11:30:56;;;;;;;;;;;;;;;6.18;82.41;102019.75;4771378;30;20389;-45
2023/03/07 11:33:25;;;;;;;;;;;;;;;6.19;82.27;102019.59;4770804;30;20381;-47
2023/03/07 11:35:57;;;;;;;;;;;;;;;6.21;81.97;102022.09;4771780;30;19925;-45
2023/03/07 11:38:22;;;;;;;;;;;;;;;6.12;82.00;102015.03;4771726;30;19921;-47
2023/03/07 11:40:54;;;;;;;;;;;;;;;6.11;82.09;102013.31;4771028;30;19918;-45
2023/03/07 11:43:43;;;;;;;;;;;;;;;6.21;81.58;102025.56;4771774;30;20331;-44
2023/03/07 11:46:29;;;;;;;;;;;;;;;6.08;81.68;102025.94;4766468;30;19918;-45
2023/03/07 11:49:07;;;;;;;;;;;;;;;6.19;82.00;102024.06;4751786;30;19918;-45
2023/03/07 11:51:33;;;;;;;;;;;;;;;6.15;82.01;102030.66;4771367;30;20461;-46
2023/03/07 11:54:18;;;;;;;;;;;;;;;5.80;84.21;102033.00;4771274;30;20012;-44
2023/03/07 11:56:49;;;;;;;;;;;;;;;5.85;83.81;102029.94;4743466;30;19921;-44
2023/03/07 11:59:27;;;;;;;;;;;;;;;6.03;83.02;102027.34;4770693;30;20388;-44
2023/03/07 12:01:57;;;;;;;;;;;;;;;5.97;83.08;102028.78;4771075;30;20360;-45
2023/03/07 12:04:23;;;;;;;;;;;;;;;6.13;82.62;102024.66;4766705;30;19956;-45
2023/03/07 12:06:48;;;;;;;;;;;;;;;6.12;82.00;102028.31;4768625;30;19954;-46
2023/03/07 12:09:23;;;;;;;;;;;;;;;5.99;82.63;102032.13;4770932;30;19928;-46
2023/03/07 12:11:55;;;;;;;;;;;;;;;5.75;83.77;102034.44;4770289;30;19918;-45
2023/03/07 12:14:21;;;;;;;;;;;;;;;6.21;82.09;102027.41;4769669;30;19941;-45
2023/03/07 12:16:49;;;;;;;;;;;;;;;5.95;82.51;102030.75;4769859;30;20000;-46
2023/03/07 12:19:34;;;;;;;;;;;;;;;5.74;84.31;102030.94;4769313;30;19961;-45
2023/03/07 12:22:00;;;;;;;;;;;;;;;5.74;85.03;102030.09;4769601;30;19950;-47
2023/03/07 12:24:29;;;;;;;;;;;;;;;5.53;85.45;102031.13;4756189;30;20381;-45
2023/03/07 12:27:17;;;;;;;;;;;;;;;5.48;86.38;102035.19;4760564;30;20391;-44
2023/03/07 12:29:46;;;;;;;;;;;;;;;5.66;85.56;102032.63;4763276;30;19921;-44
2023/03/07 12:32:16;;;;;;;;;;;;;;;5.91;84.13;102034.69;4770494;30;19918;-44
2023/03/07 12:34:45;;;;;;;;;;;;;;;5.78;83.54;102036.81;4770080;30;19978;-44
2023/03/07 12:37:17;;;;;;;;;;;;;;;5.88;83.98;102036.75;4770195;30;19922;-46
2023/03/07 12:39:47;;;;;;;;;;;;;;;5.80;83.05;102032.19;4769703;30;20368;-43
2023/03/07 12:42:30;;;;;;;;;;;;;;;5.77;82.94;102037.78;4770370;30;20295;-44
2023/03/07 12:45:02;;;;;;;;;;;;;;;5.73;82.96;102039.06;4770435;30;19922;-46
2023/03/07 12:47:27;;;;;;;;;;;;;;;5.16;85.20;102036.38;4769871;30;19918;-48
2023/03/07 12:50:03;;;;;;;;;;;;;;;5.36;84.73;102036.34;4769609;30;20227;-46
2023/03/07 12:52:29;;;;;;;;;;;;;;;5.21;84.51;102031.47;4770326;30;19925;-43